Date,TemperatureHighF,TemperatureAvgF,TemperatureLowF,DewpointHighF,DewpointAvgF,DewpointLowF,HumidityHigh,HumidityAvg,HumidityLow,PressureMaxIn,PressureMinIn,WindSpeedMaxMPH,WindSpeedAvgMPH,GustSpeedMaxMPH,PrecipitationSumIn
2013-1-1,52,42,35,45,39,34,98,90,70,30.33,30.22,6,0,8,0.01
2013-1-2,52,41,33,42,37,32,97,86,65,30.22,30.08,6,1,6,0.01
2013-1-3,54,47,34,48,43,33,97,88,74,30.26,30.06,14,2,16,0.09
2013-1-4,52,47,42,50,46,41,99,96,92,30.31,30.15,8,1,8,0.10
2013-1-5,50,45,39,47,43,39,99,95,84,30.17,30.13,12,1,12,0.08
2013-1-6,50,43,37,46,42,36,99,94,84,30.26,30.17,5,1,5,0.01
2013-1-7,50,46,44,50,46,42,99,97,92,30.29,30.20,3,1,7,0.16
2013-1-8,52,49,47,50,48,46,99,96,92,30.31,30.10,12,3,13,0.00
2013-1-9,51,48,38,48,46,37,99,93,89,30.07,29.93,11,3,28,0.72
2013-1-10,43,39,35,42,38,34,99,97,93,30.21,30.07,8,1,8,0.35
2013-1-11,42,38,34,42,37,33,99,98,96,30.30,30.21,2,0,8,0.31
2013-1-12,46,37,32,36,34,31,99,88,63,30.30,30.24,3,1,9,0.01
2013-1-13,45,37,30,33,29,27,95,74,52,30.39,30.31,6,2,12,0.01
2013-1-14,45,37,32,34,29,27,89,73,62,30.47,30.39,9,2,12,0.00
2013-1-15,49,41,32,41,36,30,96,83,64,30.49,30.43,11,1,11,0.00
2013-1-16,60,52,39,42,37,34,81,60,43,30.46,30.31,13,2,15,0.00
2013-1-17,45,42,37,43,40,34,98,93,80,30.28,30.20,13,2,13,0.00
2013-1-18,47,41,32,43,39,31,99,93,85,30.24,30.18,6,1,7,0.00
2013-1-19,50,41,34,43,38,32,98,91,71,30.29,30.22,12,2,12,0.01
2013-1-21,57,51,40,44,39,34,83,64,52,30.18,30.08,14,1,14,0.01
2013-1-22,49,47,47,39,39,39,75,73,68,29.91,29.90,6,2,6,0.00
2013-1-23,47,44,42,46,44,41,98,97,97,30.08,29.87,6,0,6,2.15
2013-1-24,55,48,41,52,46,41,99,97,85,30.19,30.12,20,1,20,0.00
2013-1-25,53,51,47,51,50,46,98,96,91,30.14,30.04,26,4,26,0.87
2013-1-26,48,44,40,46,43,40,99,95,80,30.11,30.05,14,1,14,0.43
2013-1-27,47,44,42,44,43,41,98,94,85,30.24,30.18,18,2,18,0.44
2013-1-28,48,44,40,47,44,40,99,99,96,30.39,30.31,20,1,20,0.52
2013-1-29,48,46,41,46,45,41,99,96,92,30.52,30.51,14,2,14,0.24
2013-1-30,55,50,39,50,47,38,98,88,78,30.56,30.39,22,4,22,0.01
2013-1-31,56,48,37,49,44,37,99,86,70,30.35,30.25,20,3,20,0.01
2013-2-1,47,45,44,43,40,40,87,84,82,30.20,30.16,16,3,16,0.00
2013-2-2,54,48,41,47,43,39,94,82,74,30.32,30.26,14,2,14,0.01
2013-2-3,53,50,43,46,44,41,96,81,74,30.32,30.24,12,2,12,0.01
2013-2-4,49,46,39,46,44,38,99,93,87,30.17,30.05,16,5,16,0.00
2013-2-5,53,51,47,49,48,45,94,89,80,30.13,30.02,28,5,28,0.26
2013-2-6,52,49,44,46,44,42,98,83,73,30.16,29.96,38,5,38,0.14
2013-2-7,46,44,41,44,42,40,96,92,87,30.04,29.98,16,2,16,0.53
2013-2-8,52,45,34,40,37,33,99,76,52,30.26,30.16,32,6,32,0.01
2013-2-9,56,54,40,43,40,38,94,59,55,30.25,30.19,28,10,28,0.01
2013-2-10,56,51,41,46,43,39,93,75,64,30.24,30.17,22,3,22,0.01
2013-2-11,62,54,39,45,41,35,86,62,50,30.38,30.27,24,6,24,0.01
2013-2-12,55,49,45,49,46,44,97,90,81,30.50,30.44,14,1,14,0.00
2013-2-13,58,55,52,50,49,46,86,78,71,30.47,30.41,22,4,22,0.01
2013-2-14,46,43,42,44,43,41,98,97,93,30.43,30.42,8,2,8,0.01
2013-3-5,47,45,44,45,43,43,95,93,92,29.71,29.68,22,4,22,2.96
2013-3-6,48,45,42,46,43,41,96,94,87,29.93,29.86,26,3,26,0.96
2013-3-7,53,48,38,46,43,37,99,82,70,30.01,29.98,18,3,18,0.13
2013-3-8,54,48,37,46,42,36,94,80,63,30.12,30.01,20,4,20,0.01
2013-3-9,64,58,44,48,45,35,94,65,35,30.43,30.36,24,4,24,0.01
2013-3-10,66,53,42,48,42,38,85,68,45,30.44,30.37,22,4,22,0.01
2013-3-11,61,56,44,53,49,42,91,78,67,30.35,30.21,16,4,16,0.00
2013-3-12,59,52,47,52,49,46,98,90,76,30.25,30.19,14,2,14,0.00
2013-3-13,50,47,44,48,46,43,99,95,92,30.23,30.19,20,4,20,0.00
2013-3-14,60,55,51,49,48,47,89,78,65,30.24,30.18,38,8,38,0.00
2013-3-15,58,52,45,53,49,45,98,90,82,30.25,30.22,16,3,16,0.00
2013-3-16,52,49,46,48,47,45,97,92,79,30.24,30.20,24,4,24,0.02
2013-3-17,50,46,40,42,40,38,97,82,68,30.33,30.26,16,4,16,0.01
2013-3-18,58,48,38,46,41,36,91,78,59,30.23,30.08,12,3,12,0.00
2013-3-19,54,52,50,50,48,45,89,86,79,29.96,29.78,58,12,58,0.02
2013-3-20,53,49,47,50,46,41,97,89,72,30.14,29.79,46,10,46,0.01
2013-3-21,53,51,49,43,40,36,75,66,59,30.37,30.33,14,4,14,0.00
2013-3-22,52,46,34,37,35,32,94,67,47,30.38,30.34,30,5,30,0.00
2013-3-23,57,51,38,42,39,34,85,64,52,30.30,30.20,22,5,22,0.00
2013-3-24,57,53,47,43,42,40,80,67,53,30.16,30.06,14,3,14,0.00
2013-3-25,52,45,36,45,41,35,98,87,75,30.02,29.99,22,4,22,0.00
2013-3-26,62,54,43,47,45,42,97,75,52,30.01,29.93,14,3,14,0.00
2013-3-27,60,57,53,52,51,49,95,80,68,29.95,29.92,38,10,38,0.19
2013-3-28,56,52,50,52,51,49,98,94,88,30.09,30.02,32,10,32,0.06
2013-3-29,71,57,49,53,50,48,98,81,49,30.14,30.07,10,1,10,0.06
2013-3-30,67,58,53,56,53,50,92,82,68,30.04,29.99,32,7,32,0.00
2013-3-31,56,54,52,55,53,51,98,97,93,30.05,29.96,12,1,12,0.32
2013-4-1,57,53,50,53,51,50,99,94,87,30.19,30.05,26,5,26,0.14
2013-4-2,51,49,46,50,48,46,98,97,94,30.25,30.14,10,1,10,0.00
2013-4-3,54,49,45,51,48,44,99,95,88,30.18,29.97,20,5,20,0.00
2013-4-4,57,54,50,56,53,49,99,96,93,29.92,29.74,48,5,48,1.64
2013-4-5,56,53,52,52,51,50,96,93,83,30.06,29.96,56,6,56,0.66
2013-4-6,55,53,51,52,51,49,96,93,84,30.09,29.94,40,8,40,0.46
2013-4-7,53,48,42,52,46,41,97,95,92,30.05,29.90,28,5,32,1.26
2013-4-8,55,46,38,46,42,37,99,88,71,30.26,30.06,28,4,28,0.04
2013-4-9,62,48,40,48,43,39,98,85,56,30.30,30.27,14,2,14,0.06
2013-4-10,53,48,42,51,47,42,98,96,91,30.34,30.27,12,2,12,0.04
2013-4-11,58,50,39,49,44,38,99,82,65,30.33,30.09,34,5,34,0.01
2013-4-12,56,47,39,48,44,38,98,87,75,30.11,30.01,14,4,14,0.01
2013-4-13,52,47,42,47,43,38,98,84,64,30.16,30.05,28,3,28,0.06
2013-4-14,51,43,36,42,38,35,97,84,67,30.16,29.99,24,4,24,0.00
2013-4-15,52,46,38,43,41,37,98,83,66,30.12,30.01,28,4,28,0.11
2013-4-16,54,46,36,45,40,35,97,82,66,30.34,30.21,32,6,32,0.00
2013-4-17,54,39,35,46,38,34,98,95,75,30.48,30.41,14,1,14,0.01
2013-4-18,54,42,38,47,41,38,98,95,76,30.44,30.35,8,1,8,0.00
2013-4-19,55,50,44,52,49,43,97,94,91,30.38,30.33,8,2,9,0.01
2013-4-20,58,51,42,50,47,41,98,87,71,30.35,30.23,12,2,12,0.00
2013-4-21,66,56,39,52,47,38,98,75,58,30.26,30.23,20,3,20,0.00
2013-4-22,67,52,40,51,46,40,98,82,55,30.21,30.11,12,2,12,0.00
2013-4-23,71,59,54,40,35,30,48,41,28,30.15,30.07,26,12,26,0.00
2013-4-24,83,59,39,51,39,30,93,59,15,30.08,29.85,20,3,20,0.00
2013-4-25,58,49,43,48,45,42,97,88,60,30.13,29.89,22,5,22,0.00
2013-4-26,52,48,46,49,46,45,95,92,88,30.27,30.17,26,4,26,0.00
2013-4-27,61,52,45,52,48,44,97,87,70,30.32,30.26,16,3,16,0.00
2013-4-28,59,46,40,51,44,39,98,92,72,30.27,30.17,6,0,6,0.00
2013-4-29,59,50,45,50,46,42,98,87,58,30.21,30.12,32,5,32,0.00
2013-4-30,58,52,40,44,39,30,86,62,35,30.26,30.16,42,8,42,0.00
2013-5-1,75,63,40,49,41,31,92,48,25,30.30,30.20,28,6,28,0.00
2013-5-2,79,69,54,52,41,30,67,37,17,30.21,30.14,18,5,18,0.00
2013-5-3,79,62,46,56,48,43,89,63,35,30.18,29.96,20,5,20,0.00
2013-5-4,88,71,47,54,45,37,96,49,17,29.96,29.62,22,5,22,0.00
2013-5-5,72,58,51,54,50,43,89,74,36,29.82,29.58,42,12,42,0.03
2013-5-6,65,50,47,55,49,47,98,97,70,29.91,29.85,8,0,8,0.01
2013-5-7,57,53,50,53,51,49,98,93,86,30.08,29.96,22,6,22,0.00
2013-5-8,60,56,52,53,51,49,95,85,75,30.16,30.08,22,4,22,0.00
2013-5-9,56,53,51,52,50,49,93,90,86,30.19,30.15,18,5,18,0.00
2013-5-10,56,52,50,52,50,49,96,92,85,30.26,30.22,16,3,16,0.00
2013-5-11,60,54,48,56,51,47,98,92,83,30.26,30.11,20,2,20,0.00
2013-5-12,64,59,54,58,56,52,97,89,79,30.19,30.11,32,9,32,0.00
2013-5-13,62,57,54,57,54,52,97,91,76,30.25,30.10,24,6,24,0.00
2013-5-14,63,56,45,53,49,44,98,79,66,30.20,30.11,24,4,24,0.00
2013-5-15,60,53,46,52,48,44,96,84,64,30.14,30.06,26,5,26,0.00
2013-5-16,57,54,51,54,52,51,98,96,84,30.03,30.00,14,1,14,0.10
2013-5-17,58,53,51,53,51,50,98,94,76,30.11,30.02,16,1,16,0.04
2013-5-18,58,52,46,54,50,46,97,93,85,30.32,30.14,26,2,26,0.06
2013-5-19,64,56,46,54,50,45,98,82,65,30.38,30.23,32,5,32,0.00
2013-5-20,68,58,47,55,50,45,96,78,60,30.26,30.07,22,4,22,0.00
2013-5-21,53,50,48,51,47,42,94,88,69,30.16,29.90,40,4,40,0.38
2013-5-22,51,46,42,49,45,41,98,95,87,30.15,30.09,10,1,10,0.29
2013-5-23,57,50,42,50,46,41,98,87,69,30.12,30.06,26,5,26,0.01
2013-5-24,57,52,47,50,48,45,98,85,70,30.14,30.10,16,3,16,0.04
2013-5-25,58,52,41,53,48,41,98,88,76,30.11,30.00,26,8,26,0.00
2013-5-26,60,56,52,54,52,51,98,87,76,30.12,30.01,38,14,38,0.10
2013-5-27,58,56,54,57,54,50,98,95,83,30.03,29.86,34,6,34,1.09
2013-5-28,60,56,52,56,54,52,99,93,83,30.00,29.93,40,11,40,0.03
2013-5-29,55,54,53,54,53,51,97,96,93,30.08,29.83,18,4,18,0.34
2013-5-30,63,54,46,53,49,46,98,82,53,30.23,30.12,8,3,11,0.00
2013-5-31,65,57,45,55,50,44,97,79,64,30.25,30.21,22,4,22,0.00
2013-6-1,68,58,45,58,51,44,98,80,59,30.20,30.06,24,3,24,0.00
2013-6-2,66,55,45,57,51,45,98,88,69,30.05,29.95,36,3,36,0.00
2013-6-3,71,62,52,57,53,50,91,75,60,29.97,29.90,8,4,14,0.00
2013-6-4,76,63,53,59,51,48,90,68,41,29.91,29.90,20,4,20,0.00
2013-6-5,76,64,49,62,56,48,98,77,59,30.00,29.95,18,4,18,0.00
2013-6-6,68,61,51,59,55,50,97,81,68,30.00,29.96,18,5,18,0.00
2013-6-7,74,61,49,59,52,47,94,73,48,30.05,30.01,18,2,18,0.00
2013-6-8,77,67,54,59,56,52,95,70,50,30.02,29.92,16,4,16,0.00
2013-6-9,68,62,54,55,52,49,88,70,59,29.94,29.90,24,6,24,0.00
2013-6-10,62,58,47,51,49,45,94,73,61,29.96,29.88,34,7,34,0.00
2013-6-11,62,58,49,52,49,44,86,71,58,30.15,30.02,30,5,30,0.00
2013-6-12,62,56,43,52,49,42,97,77,66,30.21,30.14,30,5,30,0.00
2013-6-13,62,54,45,54,49,44,96,83,68,30.31,30.21,16,3,16,0.00
2013-6-14,70,59,46,57,50,45,97,75,58,30.27,29.94,14,3,14,0.00
2013-6-15,59,54,49,55,51,47,96,92,84,30.04,29.94,10,1,10,0.00
2013-6-16,62,55,48,56,52,46,97,89,77,30.16,30.08,30,6,30,0.00
2013-6-17,66,54,44,58,52,44,98,93,72,30.14,30.07,20,4,20,0.10
2013-6-18,62,56,46,57,53,46,98,89,73,30.07,30.02,28,6,28,0.03
2013-6-19,62,58,53,57,54,52,98,87,76,30.15,30.01,24,8,24,0.28
2013-6-20,65,56,48,55,51,47,98,86,66,30.15,30.08,8,2,10,0.00
2013-6-21,67,59,48,57,53,48,97,81,65,30.13,30.08,18,3,18,0.01
2013-6-22,62,54,50,57,52,49,98,95,83,30.08,29.94,18,1,18,0.00
2013-6-23,67,61,57,62,59,56,97,92,83,29.90,29.70,22,3,22,0.36
2013-6-24,63,57,54,57,55,53,98,92,76,29.78,29.71,24,3,24,0.12
2013-6-25,65,61,57,60,58,56,98,91,79,29.85,29.71,36,5,36,0.39
2013-6-26,70,63,59,63,60,58,98,91,74,30.01,29.86,24,3,24,0.39
2013-6-27,69,63,59,63,60,58,96,91,82,30.15,30.01,26,8,26,0.39
2013-6-28,80,69,56,66,60,56,98,76,52,30.14,30.08,14,2,14,0.00
2013-6-29,83,68,57,66,60,56,96,78,53,30.10,29.99,14,2,14,0.00
2013-6-30,76,66,58,65,61,57,97,85,66,29.99,29.92,22,3,22,0.00
2013-7-1,72,63,58,66,60,57,98,92,79,29.97,29.92,30,4,30,0.00
2013-7-2,73,64,58,68,62,58,98,92,76,30.00,29.95,12,1,12,0.00
2013-7-3,73,64,57,63,59,55,95,83,65,30.00,29.97,18,2,18,0.00
2013-7-4,69,61,50,59,54,49,94,79,67,30.03,29.96,26,4,26,0.00
2013-7-5,69,64,55,57,55,53,93,74,59,29.98,29.85,32,7,32,0.00
2013-7-6,71,62,54,59,55,51,91,77,64,29.88,29.79,18,6,18,0.00
2013-7-7,70,64,52,60,57,51,97,79,68,29.88,29.84,18,4,18,0.00
2013-7-8,71,56,50,61,53,49,98,91,68,29.93,29.91,10,1,10,0.00
2013-7-9,66,59,52,59,55,51,98,87,76,30.02,29.96,22,4,22,0.00
2013-7-10,71,63,51,61,56,50,98,81,62,30.02,29.90,18,3,18,0.00
2013-7-11,69,59,48,57,52,47,98,79,59,29.97,29.92,6,2,11,0.00
2013-7-12,68,61,47,56,52,46,98,74,57,30.02,29.96,22,3,22,0.00
2013-7-13,76,64,49,59,53,46,94,68,51,30.02,29.93,18,3,18,0.00
2013-7-14,71,61,49,60,54,48,97,80,62,29.99,29.90,16,3,16,0.00
2013-7-15,70,58,49,59,54,48,96,84,65,29.92,29.79,32,8,32,0.00
2013-7-16,61,57,51,57,54,50,97,90,82,30.01,29.84,30,8,30,0.00
2013-7-17,68,62,55,58,55,53,92,80,67,30.17,30.07,16,2,16,0.00
2013-7-18,71,58,49,59,54,48,98,88,62,30.12,30.03,12,1,12,0.00
2013-7-19,71,60,49,59,54,48,98,82,63,30.05,29.97,20,2,20,0.00
2013-7-20,72,60,49,60,54,48,98,83,62,30.00,29.85,16,2,16,0.00
2013-7-21,76,63,48,63,56,48,98,79,59,29.87,29.79,14,2,14,0.00
2013-7-22,62,56,50,57,53,49,98,91,80,29.94,29.85,26,5,26,0.00
2013-7-23,57,52,50,56,51,49,98,97,95,30.01,29.98,2,0,3,0.00
2013-7-24,69,61,52,61,56,51,97,85,71,30.01,29.96,16,3,16,0.00
2013-7-25,68,59,51,61,55,50,97,87,75,29.99,29.93,26,3,26,0.00
2013-7-26,70,60,53,61,56,52,97,85,66,30.06,30.01,24,5,24,0.00
2013-7-27,72,64,50,58,54,48,95,71,58,30.07,29.94,20,4,20,0.00
2013-7-28,69,61,48,57,53,46,97,76,63,29.98,29.95,20,3,20,0.00
2013-7-29,70,61,49,58,54,48,97,80,61,29.97,29.89,16,2,16,0.00
2013-7-30,67,58,47,58,53,46,97,86,70,30.14,30.04,16,3,16,0.00
2013-7-31,61,56,51,58,54,49,97,92,85,30.14,30.09,12,2,12,0.00
2013-8-1,64,62,60,58,58,57,92,85,82,30.16,30.13,8,4,8,0.00
2013-8-2,70,62,50,60,56,49,98,81,65,30.14,30.00,22,2,22,0.00
2013-8-3,76,64,53,62,57,52,97,79,60,30.01,29.92,12,2,12,0.01
2013-8-4,59,56,54,56,54,52,97,92,86,29.98,29.94,28,5,28,0.00
2013-8-5,60,55,50,57,53,50,98,92,85,30.01,29.95,16,4,16,0.00
2013-8-6,56,51,49,54,50,48,98,96,91,30.03,29.96,18,2,18,0.00
2013-8-7,62,55,52,57,53,51,98,93,84,30.10,30.02,10,2,10,0.00
2013-8-8,59,53,50,58,52,49,98,97,95,30.10,30.01,2,0,3,0.00
2013-8-9,57,56,55,56,55,55,98,98,97,29.96,29.91,10,0,10,0.08
2013-8-10,64,57,54,60,56,53,98,96,85,30.05,29.98,10,1,10,0.01
2013-8-21,65,58,54,58,55,52,96,90,76,29.96,29.86,12,2,12,0.00
2013-8-22,59,56,53,56,54,52,96,94,89,30.00,29.92,6,1,9,0.01
2013-8-23,69,60,53,60,56,52,98,88,70,29.98,29.91,8,1,9,0.00
2013-8-24,68,58,51,61,55,50,98,92,76,29.92,29.87,10,2,11,0.01
2013-8-25,66,58,53,60,56,51,98,91,78,29.96,29.89,8,2,9,0.01
2013-8-26,74,62,50,60,55,49,98,80,50,29.98,29.95,16,3,17,0.00
2013-8-27,70,63,55,62,58,54,97,84,71,29.96,29.85,28,6,28,0.01
2013-8-28,72,66,56,65,61,55,97,86,76,29.88,29.83,24,5,24,0.04
2013-8-29,69,66,62,66,64,60,96,92,86,30.05,29.87,16,2,16,0.42
2013-8-30,64,63,62,63,62,62,98,97,97,30.11,30.08,0,0,0,0.42
2013-8-31,65,61,58,61,59,57,98,94,87,30.01,29.93,26,5,26,0.00
2013-9-1,77,63,52,64,58,52,98,84,60,29.95,29.85,32,4,32,0.01
2013-9-2,64,63,61,63,62,60,98,97,97,29.90,29.88,2,0,6,0.05
2013-9-3,71,62,52,63,58,52,98,89,72,30.02,29.94,18,4,19,0.01
2013-9-4,68,61,55,64,59,54,98,92,82,30.07,30.00,12,3,14,0.00
2013-9-5,68,59,52,61,56,52,98,92,78,30.13,30.01,8,2,10,0.01
2013-9-6,72,63,55,62,58,54,98,84,69,30.17,30.00,6,2,12,0.00
2013-9-7,75,65,56,64,59,54,97,82,62,30.00,29.87,6,2,9,0.00
2013-9-8,86,70,52,67,60,51,98,73,50,29.93,29.82,10,1,10,0.05
2013-9-9,83,71,64,64,60,58,83,69,49,29.87,29.75,6,2,8,0.02
2013-9-10,86,68,57,68,58,54,92,74,41,29.81,29.68,16,4,16,0.00
2013-9-11,70,62,52,63,58,51,98,88,75,29.97,29.85,24,4,24,0.00
2013-9-12,66,62,60,61,59,58,95,89,82,30.00,29.96,6,1,6,0.00
2013-9-13,65,60,56,61,58,55,96,92,82,29.98,29.83,10,2,11,0.00
2013-9-14,62,59,57,58,57,57,97,93,88,29.85,29.80,8,2,10,0.01
2013-9-15,64,60,57,59,58,54,98,91,80,29.93,29.78,10,2,11,0.01
2013-9-16,70,62,56,61,57,54,95,83,58,29.98,29.87,6,1,10,0.00
2013-9-17,68,63,56,61,58,54,97,83,69,30.03,29.85,18,3,18,0.14
2013-9-18,72,59,50,57,53,49,97,82,56,30.09,29.98,14,2,14,0.00
2013-9-19,72,60,48,60,54,48,98,80,53,29.94,29.83,18,2,18,0.01
2013-9-20,67,58,49,63,56,48,97,93,64,29.82,29.69,12,1,13,0.65
2013-9-21,66,61,55,60,58,54,98,88,73,29.78,29.66,26,4,26,0.54
2013-9-22,63,57,49,58,55,49,98,94,79,29.91,29.85,18,3,18,0.31
2013-9-23,66,61,57,62,58,56,98,89,72,30.04,29.94,20,2,20,0.10
2013-9-24,62,58,55,60,56,54,98,95,76,30.03,29.99,10,1,10,0.32
2013-9-25,61,53,46,55,50,45,99,91,70,30.07,29.95,8,2,14,0.40
2013-9-26,63,52,43,55,48,42,98,88,69,30.19,30.06,10,2,15,0.00
2013-9-27,66,55,46,55,50,46,97,84,58,30.20,30.07,4,1,9,0.02
2013-9-28,62,60,56,59,58,55,97,93,88,30.07,29.76,42,5,42,0.49
2013-9-29,61,59,55,59,57,54,97,93,84,29.85,29.72,40,5,40,1.07
2013-9-30,65,58,50,57,54,49,99,87,65,30.05,29.82,24,2,24,0.05
2013-10-1,64,56,51,57,52,48,98,86,57,30.16,30.06,12,2,12,0.05
2013-10-2,60,51,44,50,46,42,98,84,63,30.17,30.11,16,3,16,0.01
2013-10-3,58,49,44,51,47,44,98,94,69,30.33,30.22,16,1,16,0.06
2013-10-4,76,59,48,55,46,38,91,67,27,30.30,30.18,8,2,13,0.00
2013-10-5,73,63,47,54,47,42,90,58,37,30.18,30.11,14,2,14,0.00
2013-10-6,74,58,44,49,44,33,93,63,24,30.11,30.02,32,2,32,0.00
2013-10-7,62,53,46,57,50,44,98,89,70,30.16,30.07,22,1,22,0.17
2013-10-8,61,51,43,52,47,42,98,87,66,30.18,30.07,22,2,22,0.34
2013-10-9,66,49,41,46,43,40,97,83,43,30.00,29.88,18,2,18,0.01
2013-10-10,64,52,45,49,45,43,92,79,57,29.99,29.92,14,2,14,0.00
2013-10-11,61,51,43,52,47,42,98,87,63,30.11,30.05,18,2,18,0.01
2013-10-12,58,47,42,53,45,41,98,94,78,30.10,30.05,8,0,8,0.00
2013-10-13,64,52,42,53,46,41,98,82,61,30.16,30.10,6,2,9,0.02
2013-10-14,68,54,46,47,46,43,92,76,44,30.18,30.15,12,2,12,0.00
2013-10-15,78,62,44,52,44,39,95,58,27,30.14,30.00,10,2,13,0.00
2013-10-16,70,55,47,50,44,42,86,68,48,30.10,30.01,12,1,12,0.00
2013-10-17,62,48,45,51,45,42,94,87,66,30.13,30.05,12,1,12,0.00
2013-10-18,57,47,40,53,45,40,98,94,80,30.08,30.02,14,2,14,0.00
2013-10-19,59,48,41,56,47,40,99,96,86,30.11,30.06,18,1,18,0.01
2013-10-20,56,48,44,53,47,43,98,96,87,30.09,29.99,16,2,16,0.01
2013-10-21,52,45,44,50,44,43,98,98,94,30.02,29.99,6,0,6,0.01
2013-10-22,56,52,48,53,50,47,98,94,90,30.05,30.00,8,1,8,0.00
2013-10-23,54,50,48,52,49,47,98,96,90,30.02,29.95,8,0,8,0.01
2013-10-24,53,49,46,50,48,46,98,96,91,30.06,29.98,20,2,20,0.01
2013-10-25,52,50,48,50,49,48,97,95,91,30.21,30.13,12,2,12,0.00
2013-10-26,61,51,44,56,49,44,99,93,79,30.19,30.10,10,1,10,0.00
2013-10-27,57,50,41,55,49,41,99,95,85,30.12,29.83,20,2,20,0.06
2013-10-28,53,44,39,52,43,39,99,98,96,29.82,29.74,8,0,8,0.02
2013-10-29,45,40,38,45,40,37,99,98,96,29.97,29.82,4,0,4,0.01
2013-10-30,58,46,39,50,42,39,99,88,57,30.19,30.08,8,1,9,0.01
2013-10-31,65,53,41,57,47,40,98,83,49,30.24,30.18,16,2,16,0.00
2013-11-1,55,51,44,54,50,44,99,96,89,30.17,30.05,18,3,18,0.01
2013-11-2,53,50,47,52,50,46,99,97,96,30.18,29.94,4,1,11,0.35
2013-11-3,52,45,40,51,44,39,99,97,90,30.26,30.18,4,0,8,0.07
2013-11-4,50,45,40,49,44,39,98,96,88,30.23,30.18,2,0,7,0.08
2013-11-5,58,53,48,58,53,48,99,98,95,30.25,30.19,20,1,20,0.11
2013-11-6,59,52,47,56,51,47,99,97,90,30.29,30.16,8,0,10,0.00
2013-11-7,58,53,46,56,52,45,99,96,93,30.18,30.08,30,2,30,0.55
2013-11-8,57,46,42,51,45,41,99,94,74,30.21,30.06,4,1,6,0.01
2013-11-9,60,49,41,50,45,40,99,87,64,30.07,29.99,4,0,6,0.01
2013-11-10,57,50,44,52,48,43,97,92,84,30.05,29.99,14,2,14,0.01
2013-11-11,65,54,45,57,48,42,98,85,43,30.07,29.98,20,2,20,0.01
2013-11-12,60,56,52,58,55,52,97,93,83,30.37,30.06,10,2,15,0.48
2013-11-13,68,55,49,53,51,48,99,87,57,30.38,30.24,16,3,16,0.01
2013-11-14,55,46,39,50,44,39,99,92,74,30.25,30.09,4,1,6,0.02
2013-11-15,54,45,39,47,43,38,98,91,73,30.08,29.86,6,1,10,0.01
2013-11-16,54,49,46,51,48,45,98,95,84,29.96,29.78,8,1,8,0.19
2013-11-17,57,50,46,50,47,45,98,88,65,30.08,29.96,10,1,12,0.00